sensor_id;sensor_type;location;lat;lon;timestamp;temperature;humidity
22532;DHT22;11432;46.924;7.114;2023-12-20T00:01:02;4.10;99.90
22532;DHT22;11432;46.924;7.114;2023-12-20T00:03:28;4.10;99.90
22532;DHT22;11432;46.924;7.114;2023-12-20T00:05:53;4.20;99.90
22532;DHT22;11432;46.924;7.114;2023-12-20T00:08:19;4.30;99.90
22532;DHT22;11432;46.924;7.114;2023-12-20T00:10:44;4.20;99.90
22532;DHT22;11432;46.924;7.114;2023-12-20T00:13:10;4.20;99.90
22532;DHT22;11432;46.924;7.114;2023-12-20T00:15:36;4.10;99.90
22532;DHT22;11432;46.924;7.114;2023-12-20T00:18:02;4.10;99.90
22532;DHT22;11432;46.924;7.114;2023-12-20T00:20:28;4.10;99.90
22532;DHT22;11432;46.924;7.114;2023-12-20T00:22:56;4.20;99.90
22532;DHT22;11432;46.924;7.114;2023-12-20T00:25:23;4.20;99.90
22532;DHT22;11432;46.924;7.114;2023-12-20T00:27:49;4.10;99.90
22532;DHT22;11432;46.924;7.114;2023-12-20T00:30:14;4.10;99.90
22532;DHT22;11432;46.924;7.114;2023-12-20T00:32:40;4.20;99.90
22532;DHT22;11432;46.924;7.114;2023-12-20T00:35:12;4.30;99.90
22532;DHT22;11432;46.924;7.114;2023-12-20T00:37:37;4.40;99.90
22532;DHT22;11432;46.924;7.114;2023-12-20T00:40:03;4.30;99.90
22532;DHT22;11432;46.924;7.114;2023-12-20T00:42:29;4.30;99.90
22532;DHT22;11432;46.924;7.114;2023-12-20T00:44:54;4.30;99.90
22532;DHT22;11432;46.924;7.114;2023-12-20T00:47:20;4.30;99.90
22532;DHT22;11432;46.924;7.114;2023-12-20T00:49:46;4.30;99.90
22532;DHT22;11432;46.924;7.114;2023-12-20T00:52:11;4.30;99.90
22532;DHT22;11432;46.924;7.114;2023-12-20T00:54:37;4.50;99.90
22532;DHT22;11432;46.924;7.114;2023-12-20T00:57:02;4.70;99.90
22532;DHT22;11432;46.924;7.114;2023-12-20T00:59:28;4.80;99.90
22532;DHT22;11432;46.924;7.114;2023-12-20T01:01:54;4.80;99.90
22532;DHT22;11432;46.924;7.114;2023-12-20T01:04:19;4.70;99.90
22532;DHT22;11432;46.924;7.114;2023-12-20T01:06:45;4.70;99.90
22532;DHT22;11432;46.924;7.114;2023-12-20T01:09:10;4.60;99.90
22532;DHT22;11432;46.924;7.114;2023-12-20T01:11:36;4.50;99.90
22532;DHT22;11432;46.924;7.114;2023-12-20T01:14:02;4.50;99.90
22532;DHT22;11432;46.924;7.114;2023-12-20T01:16:27;4.60;99.90
22532;DHT22;11432;46.924;7.114;2023-12-20T01:18:53;4.60;99.90
22532;DHT22;11432;46.924;7.114;2023-12-20T01:21:18;4.60;99.90
22532;DHT22;11432;46.924;7.114;2023-12-20T01:23:44;4.60;99.90
22532;DHT22;11432;46.924;7.114;2023-12-20T01:26:09;4.60;99.90
22532;DHT22;11432;46.924;7.114;2023-12-20T01:28:35;4.60;99.90
22532;DHT22;11432;46.924;7.114;2023-12-20T01:31:01;4.60;99.90
22532;DHT22;11432;46.924;7.114;2023-12-20T01:33:26;4.60;99.90
22532;DHT22;11432;46.924;7.114;2023-12-20T01:35:52;4.60;99.90
22532;DHT22;11432;46.924;7.114;2023-12-20T01:38:17;4.60;99.90
22532;DHT22;11432;46.924;7.114;2023-12-20T01:40:46;4.60;99.90
22532;DHT22;11432;46.924;7.114;2023-12-20T01:43:11;4.60;99.90
22532;DHT22;11432;46.924;7.114;2023-12-20T01:45:38;4.60;99.90
22532;DHT22;11432;46.924;7.114;2023-12-20T01:48:05;4.60;99.90
22532;DHT22;11432;46.924;7.114;2023-12-20T01:50:31;4.60;99.90
22532;DHT22;11432;46.924;7.114;2023-12-20T01:52:59;4.60;99.90
22532;DHT22;11432;46.924;7.114;2023-12-20T01:55:27;4.60;99.90
22532;DHT22;11432;46.924;7.114;2023-12-20T01:57:53;4.50;99.90
22532;DHT22;11432;46.924;7.114;2023-12-20T02:00:19;3.90;99.90
22532;DHT22;11432;46.924;7.114;2023-12-20T02:02:50;4.60;99.90
22532;DHT22;11432;46.924;7.114;2023-12-20T02:05:16;4.60;99.90
22532;DHT22;11432;46.924;7.114;2023-12-20T02:07:42;4.70;99.90
22532;DHT22;11432;46.924;7.114;2023-12-20T02:10:08;4.70;99.90
22532;DHT22;11432;46.924;7.114;2023-12-20T02:12:33;4.90;99.90
22532;DHT22;11432;46.924;7.114;2023-12-20T02:14:59;4.90;99.90
22532;DHT22;11432;46.924;7.114;2023-12-20T02:17:26;5.00;99.90
22532;DHT22;11432;46.924;7.114;2023-12-20T02:19:53;5.00;99.90
22532;DHT22;11432;46.924;7.114;2023-12-20T02:22:18;5.00;99.90
22532;DHT22;11432;46.924;7.114;2023-12-20T02:24:44;5.00;99.90
22532;DHT22;11432;46.924;7.114;2023-12-20T02:27:09;5.00;99.90
22532;DHT22;11432;46.924;7.114;2023-12-20T02:29:35;5.00;99.90
22532;DHT22;11432;46.924;7.114;2023-12-20T02:32:01;5.00;99.90
22532;DHT22;11432;46.924;7.114;2023-12-20T02:34:28;5.00;99.90
22532;DHT22;11432;46.924;7.114;2023-12-20T02:36:53;5.00;99.90
22532;DHT22;11432;46.924;7.114;2023-12-20T02:39:20;5.00;99.90
22532;DHT22;11432;46.924;7.114;2023-12-20T02:41:46;5.00;99.90
22532;DHT22;11432;46.924;7.114;2023-12-20T02:44:12;5.10;99.90
22532;DHT22;11432;46.924;7.114;2023-12-20T02:46:37;5.20;99.90
22532;DHT22;11432;46.924;7.114;2023-12-20T02:49:03;5.30;99.90
22532;DHT22;11432;46.924;7.114;2023-12-20T02:51:28;5.30;99.90
22532;DHT22;11432;46.924;7.114;2023-12-20T02:53:54;5.20;99.90
22532;DHT22;11432;46.924;7.114;2023-12-20T02:56:19;5.20;99.90
22532;DHT22;11432;46.924;7.114;2023-12-20T02:58:45;5.10;99.90
22532;DHT22;11432;46.924;7.114;2023-12-20T03:01:11;5.10;99.90
22532;DHT22;11432;46.924;7.114;2023-12-20T03:03:36;5.00;99.90
22532;DHT22;11432;46.924;7.114;2023-12-20T03:06:02;5.00;99.90
22532;DHT22;11432;46.924;7.114;2023-12-20T03:08:27;5.00;99.90
22532;DHT22;11432;46.924;7.114;2023-12-20T03:10:53;4.90;99.90
22532;DHT22;11432;46.924;7.114;2023-12-20T03:13:19;4.90;99.90
22532;DHT22;11432;46.924;7.114;2023-12-20T03:15:45;4.90;99.90
22532;DHT22;11432;46.924;7.114;2023-12-20T03:18:11;4.80;99.90
22532;DHT22;11432;46.924;7.114;2023-12-20T03:20:37;4.80;99.90
22532;DHT22;11432;46.924;7.114;2023-12-20T03:23:03;4.80;99.90
22532;DHT22;11432;46.924;7.114;2023-12-20T03:25:28;4.80;99.90
22532;DHT22;11432;46.924;7.114;2023-12-20T03:27:54;4.70;99.90
22532;DHT22;11432;46.924;7.114;2023-12-20T03:30:20;4.70;99.90
22532;DHT22;11432;46.924;7.114;2023-12-20T03:32:46;4.60;99.90
22532;DHT22;11432;46.924;7.114;2023-12-20T03:35:11;4.60;99.90
22532;DHT22;11432;46.924;7.114;2023-12-20T03:37:37;4.60;99.90
22532;DHT22;11432;46.924;7.114;2023-12-20T03:40:03;4.60;99.90
22532;DHT22;11432;46.924;7.114;2023-12-20T03:42:29;4.60;99.90
22532;DHT22;11432;46.924;7.114;2023-12-20T03:44:54;4.60;99.90
22532;DHT22;11432;46.924;7.114;2023-12-20T03:47:20;4.60;99.90
22532;DHT22;11432;46.924;7.114;2023-12-20T03:49:46;4.60;99.90
22532;DHT22;11432;46.924;7.114;2023-12-20T03:52:11;4.60;99.90
22532;DHT22;11432;46.924;7.114;2023-12-20T03:54:37;4.70;99.90
22532;DHT22;11432;46.924;7.114;2023-12-20T03:57:03;4.70;99.90
22532;DHT22;11432;46.924;7.114;2023-12-20T03:59:30;4.80;99.90
22532;DHT22;11432;46.924;7.114;2023-12-20T04:01:59;4.70;99.90
22532;DHT22;11432;46.924;7.114;2023-12-20T04:04:25;4.80;99.90
22532;DHT22;11432;46.924;7.114;2023-12-20T04:06:50;4.80;99.90
22532;DHT22;11432;46.924;7.114;2023-12-20T04:09:16;4.80;99.90
22532;DHT22;11432;46.924;7.114;2023-12-20T04:11:42;4.80;99.90
22532;DHT22;11432;46.924;7.114;2023-12-20T04:14:07;4.80;99.90
22532;DHT22;11432;46.924;7.114;2023-12-20T04:16:33;4.80;99.90
22532;DHT22;11432;46.924;7.114;2023-12-20T04:18:58;4.80;99.90
22532;DHT22;11432;46.924;7.114;2023-12-20T04:21:24;4.80;99.90
22532;DHT22;11432;46.924;7.114;2023-12-20T04:23:50;4.80;99.90
22532;DHT22;11432;46.924;7.114;2023-12-20T04:26:15;4.80;99.90
22532;DHT22;11432;46.924;7.114;2023-12-20T04:28:41;4.80;99.90
22532;DHT22;11432;46.924;7.114;2023-12-20T04:31:06;4.80;99.90
22532;DHT22;11432;46.924;7.114;2023-12-20T04:33:32;4.80;99.90
22532;DHT22;11432;46.924;7.114;2023-12-20T04:35:58;4.80;99.90
22532;DHT22;11432;46.924;7.114;2023-12-20T04:38:23;4.80;99.90
22532;DHT22;11432;46.924;7.114;2023-12-20T04:40:49;4.80;99.90
22532;DHT22;11432;46.924;7.114;2023-12-20T04:43:14;4.70;99.90
22532;DHT22;11432;46.924;7.114;2023-12-20T04:45:40;4.70;99.90
22532;DHT22;11432;46.924;7.114;2023-12-20T04:48:06;4.70;99.90
22532;DHT22;11432;46.924;7.114;2023-12-20T04:50:31;4.70;99.90
22532;DHT22;11432;46.924;7.114;2023-12-20T04:52:58;4.80;99.90
22532;DHT22;11432;46.924;7.114;2023-12-20T04:55:24;4.70;99.90
22532;DHT22;11432;46.924;7.114;2023-12-20T04:57:49;4.80;99.90
22532;DHT22;11432;46.924;7.114;2023-12-20T05:00:15;4.80;99.90
22532;DHT22;11432;46.924;7.114;2023-12-20T05:02:41;4.80;99.90
22532;DHT22;11432;46.924;7.114;2023-12-20T05:05:07;4.80;99.90
22532;DHT22;11432;46.924;7.114;2023-12-20T05:07:33;4.80;99.90
22532;DHT22;11432;46.924;7.114;2023-12-20T05:09:58;4.80;99.90
22532;DHT22;11432;46.924;7.114;2023-12-20T05:12:24;4.80;99.90
22532;DHT22;11432;46.924;7.114;2023-12-20T05:14:54;4.80;99.90
22532;DHT22;11432;46.924;7.114;2023-12-20T05:17:19;4.80;99.90
22532;DHT22;11432;46.924;7.114;2023-12-20T05:19:45;4.80;99.90
22532;DHT22;11432;46.924;7.114;2023-12-20T05:22:11;4.80;99.90
22532;DHT22;11432;46.924;7.114;2023-12-20T05:24:37;4.70;99.90
22532;DHT22;11432;46.924;7.114;2023-12-20T05:27:03;4.80;99.90
22532;DHT22;11432;46.924;7.114;2023-12-20T05:29:28;4.80;99.90
22532;DHT22;11432;46.924;7.114;2023-12-20T05:31:54;4.80;99.90
22532;DHT22;11432;46.924;7.114;2023-12-20T05:34:19;4.80;99.90
22532;DHT22;11432;46.924;7.114;2023-12-20T05:36:45;4.90;99.90
22532;DHT22;11432;46.924;7.114;2023-12-20T05:39:11;4.90;99.90
22532;DHT22;11432;46.924;7.114;2023-12-20T05:41:37;4.90;99.90
22532;DHT22;11432;46.924;7.114;2023-12-20T05:44:02;4.80;99.90
22532;DHT22;11432;46.924;7.114;2023-12-20T05:46:28;4.90;99.90
22532;DHT22;11432;46.924;7.114;2023-12-20T05:48:53;4.90;99.90
22532;DHT22;11432;46.924;7.114;2023-12-20T05:51:19;4.90;99.90
22532;DHT22;11432;46.924;7.114;2023-12-20T05:53:45;4.90;99.90
22532;DHT22;11432;46.924;7.114;2023-12-20T05:56:11;4.80;99.90
22532;DHT22;11432;46.924;7.114;2023-12-20T05:58:38;4.90;99.90
22532;DHT22;11432;46.924;7.114;2023-12-20T06:01:04;4.90;99.90
22532;DHT22;11432;46.924;7.114;2023-12-20T06:03:30;4.90;99.90
22532;DHT22;11432;46.924;7.114;2023-12-20T06:05:55;4.90;99.90
22532;DHT22;11432;46.924;7.114;2023-12-20T06:08:21;4.90;99.90
22532;DHT22;11432;46.924;7.114;2023-12-20T06:10:47;4.90;99.90
22532;DHT22;11432;46.924;7.114;2023-12-20T06:13:12;4.90;99.90
22532;DHT22;11432;46.924;7.114;2023-12-20T06:15:38;4.90;99.90
22532;DHT22;11432;46.924;7.114;2023-12-20T06:18:05;4.90;99.90
22532;DHT22;11432;46.924;7.114;2023-12-20T06:20:32;4.90;99.90
22532;DHT22;11432;46.924;7.114;2023-12-20T06:22:57;4.80;99.90
22532;DHT22;11432;46.924;7.114;2023-12-20T06:25:23;4.90;99.90
22532;DHT22;11432;46.924;7.114;2023-12-20T06:27:48;4.80;99.90
22532;DHT22;11432;46.924;7.114;2023-12-20T06:30:15;4.90;99.90
22532;DHT22;11432;46.924;7.114;2023-12-20T06:32:41;4.90;99.90
22532;DHT22;11432;46.924;7.114;2023-12-20T06:35:08;5.00;99.90
22532;DHT22;11432;46.924;7.114;2023-12-20T06:37:34;5.10;99.90
22532;DHT22;11432;46.924;7.114;2023-12-20T06:40:00;5.10;99.90
22532;DHT22;11432;46.924;7.114;2023-12-20T06:42:26;5.10;99.90
22532;DHT22;11432;46.924;7.114;2023-12-20T06:44:51;5.10;99.90
22532;DHT22;11432;46.924;7.114;2023-12-20T06:47:49;5.10;99.90
22532;DHT22;11432;46.924;7.114;2023-12-20T06:50:14;5.10;99.90
22532;DHT22;11432;46.924;7.114;2023-12-20T06:52:40;5.10;99.90
22532;DHT22;11432;46.924;7.114;2023-12-20T06:55:06;5.10;99.90
22532;DHT22;11432;46.924;7.114;2023-12-20T06:57:31;5.10;99.90
22532;DHT22;11432;46.924;7.114;2023-12-20T06:59:57;5.10;99.90
22532;DHT22;11432;46.924;7.114;2023-12-20T07:02:23;5.10;99.90
22532;DHT22;11432;46.924;7.114;2023-12-20T07:04:48;5.10;99.90
22532;DHT22;11432;46.924;7.114;2023-12-20T07:07:14;5.10;99.90
22532;DHT22;11432;46.924;7.114;2023-12-20T07:09:40;5.10;99.90
22532;DHT22;11432;46.924;7.114;2023-12-20T07:12:08;5.10;99.90
22532;DHT22;11432;46.924;7.114;2023-12-20T07:14:33;5.10;99.90
22532;DHT22;11432;46.924;7.114;2023-12-20T07:16:59;5.10;99.90
22532;DHT22;11432;46.924;7.114;2023-12-20T07:19:25;5.10;99.90
22532;DHT22;11432;46.924;7.114;2023-12-20T07:21:50;5.00;99.90
22532;DHT22;11432;46.924;7.114;2023-12-20T07:24:16;5.00;99.90
22532;DHT22;11432;46.924;7.114;2023-12-20T07:26:41;5.00;99.90
22532;DHT22;11432;46.924;7.114;2023-12-20T07:29:07;5.00;99.90
22532;DHT22;11432;46.924;7.114;2023-12-20T07:31:32;5.00;99.90
22532;DHT22;11432;46.924;7.114;2023-12-20T07:33:58;5.00;99.90
22532;DHT22;11432;46.924;7.114;2023-12-20T07:36:24;5.00;99.90
22532;DHT22;11432;46.924;7.114;2023-12-20T07:38:49;5.00;99.90
22532;DHT22;11432;46.924;7.114;2023-12-20T07:41:15;5.00;99.90
22532;DHT22;11432;46.924;7.114;2023-12-20T07:43:46;5.00;99.90
22532;DHT22;11432;46.924;7.114;2023-12-20T07:46:12;5.00;99.90
22532;DHT22;11432;46.924;7.114;2023-12-20T07:48:37;5.00;99.90
22532;DHT22;11432;46.924;7.114;2023-12-20T07:51:06;5.00;99.90
22532;DHT22;11432;46.924;7.114;2023-12-20T07:53:33;5.10;99.90
22532;DHT22;11432;46.924;7.114;2023-12-20T07:55:59;5.10;99.90
22532;DHT22;11432;46.924;7.114;2023-12-20T07:58:25;5.10;99.90
22532;DHT22;11432;46.924;7.114;2023-12-20T08:00:50;5.10;99.90
22532;DHT22;11432;46.924;7.114;2023-12-20T08:03:16;5.20;99.90
22532;DHT22;11432;46.924;7.114;2023-12-20T08:05:42;5.20;99.90
22532;DHT22;11432;46.924;7.114;2023-12-20T08:08:08;5.20;99.90
22532;DHT22;11432;46.924;7.114;2023-12-20T08:10:33;5.20;99.90
22532;DHT22;11432;46.924;7.114;2023-12-20T08:12:59;5.20;99.90
22532;DHT22;11432;46.924;7.114;2023-12-20T08:15:24;5.20;99.90
22532;DHT22;11432;46.924;7.114;2023-12-20T08:17:50;5.20;99.90
22532;DHT22;11432;46.924;7.114;2023-12-20T08:20:18;5.20;99.90
22532;DHT22;11432;46.924;7.114;2023-12-20T08:22:44;5.30;99.90
22532;DHT22;11432;46.924;7.114;2023-12-20T08:25:10;5.30;99.90
22532;DHT22;11432;46.924;7.114;2023-12-20T08:27:40;5.30;99.90
22532;DHT22;11432;46.924;7.114;2023-12-20T08:30:06;5.30;99.90
22532;DHT22;11432;46.924;7.114;2023-12-20T08:32:33;5.30;99.90
22532;DHT22;11432;46.924;7.114;2023-12-20T08:34:58;5.30;99.90
22532;DHT22;11432;46.924;7.114;2023-12-20T08:37:24;5.30;99.90
22532;DHT22;11432;46.924;7.114;2023-12-20T08:39:49;5.30;99.90
22532;DHT22;11432;46.924;7.114;2023-12-20T08:42:15;5.30;99.90
22532;DHT22;11432;46.924;7.114;2023-12-20T08:44:41;5.40;99.90
22532;DHT22;11432;46.924;7.114;2023-12-20T08:47:06;5.40;99.90
22532;DHT22;11432;46.924;7.114;2023-12-20T08:49:32;5.50;99.90
22532;DHT22;11432;46.924;7.114;2023-12-20T08:51:58;5.60;99.90
22532;DHT22;11432;46.924;7.114;2023-12-20T08:54:24;5.60;99.90
22532;DHT22;11432;46.924;7.114;2023-12-20T08:56:50;5.60;99.90
22532;DHT22;11432;46.924;7.114;2023-12-20T08:59:15;5.60;99.90
22532;DHT22;11432;46.924;7.114;2023-12-20T09:01:41;5.70;99.90
22532;DHT22;11432;46.924;7.114;2023-12-20T09:04:06;5.60;99.90
22532;DHT22;11432;46.924;7.114;2023-12-20T09:06:32;5.60;99.90
22532;DHT22;11432;46.924;7.114;2023-12-20T09:08:57;5.60;99.90
22532;DHT22;11432;46.924;7.114;2023-12-20T09:11:23;5.60;99.90
22532;DHT22;11432;46.924;7.114;2023-12-20T09:13:49;5.60;99.90
22532;DHT22;11432;46.924;7.114;2023-12-20T09:16:14;5.50;99.90
22532;DHT22;11432;46.924;7.114;2023-12-20T09:18:41;5.50;99.90
22532;DHT22;11432;46.924;7.114;2023-12-20T09:21:07;5.50;99.90
22532;DHT22;11432;46.924;7.114;2023-12-20T09:23:32;5.50;99.90
22532;DHT22;11432;46.924;7.114;2023-12-20T09:25:58;5.60;99.90
22532;DHT22;11432;46.924;7.114;2023-12-20T09:28:24;5.60;99.90
22532;DHT22;11432;46.924;7.114;2023-12-20T09:30:49;5.70;99.90
22532;DHT22;11432;46.924;7.114;2023-12-20T09:33:15;5.80;99.90
22532;DHT22;11432;46.924;7.114;2023-12-20T09:35:42;6.00;99.90
22532;DHT22;11432;46.924;7.114;2023-12-20T09:38:07;6.10;99.90
22532;DHT22;11432;46.924;7.114;2023-12-20T09:40:34;6.30;99.90
22532;DHT22;11432;46.924;7.114;2023-12-20T09:43:10;6.40;99.90
22532;DHT22;11432;46.924;7.114;2023-12-20T09:45:36;6.50;99.90
22532;DHT22;11432;46.924;7.114;2023-12-20T09:48:03;6.60;99.90
22532;DHT22;11432;46.924;7.114;2023-12-20T09:50:30;6.70;99.90
22532;DHT22;11432;46.924;7.114;2023-12-20T09:52:58;6.80;99.90
22532;DHT22;11432;46.924;7.114;2023-12-20T09:55:25;7.00;99.90
22532;DHT22;11432;46.924;7.114;2023-12-20T09:57:51;7.00;99.90
22532;DHT22;11432;46.924;7.114;2023-12-20T10:00:17;7.00;99.90
22532;DHT22;11432;46.924;7.114;2023-12-20T10:03:01;6.90;99.90
22532;DHT22;11432;46.924;7.114;2023-12-20T10:05:34;6.90;99.90
22532;DHT22;11432;46.924;7.114;2023-12-20T10:08:00;6.80;99.90
22532;DHT22;11432;46.924;7.114;2023-12-20T10:10:27;6.90;99.90
22532;DHT22;11432;46.924;7.114;2023-12-20T10:13:07;7.00;99.90
22532;DHT22;11432;46.924;7.114;2023-12-20T10:15:37;7.10;99.90
22532;DHT22;11432;46.924;7.114;2023-12-20T10:18:03;7.10;99.90
22532;DHT22;11432;46.924;7.114;2023-12-20T10:20:30;7.10;99.90
22532;DHT22;11432;46.924;7.114;2023-12-20T10:22:59;7.20;99.90
22532;DHT22;11432;46.924;7.114;2023-12-20T10:25:25;7.30;99.90
22532;DHT22;11432;46.924;7.114;2023-12-20T10:30:36;7.20;99.90
22532;DHT22;11432;46.924;7.114;2023-12-20T10:33:02;7.20;99.90
22532;DHT22;11432;46.924;7.114;2023-12-20T10:35:27;7.30;99.90
22532;DHT22;11432;46.924;7.114;2023-12-20T10:37:55;7.40;99.90
22532;DHT22;11432;46.924;7.114;2023-12-20T10:40:25;7.30;99.90
22532;DHT22;11432;46.924;7.114;2023-12-20T10:42:53;7.40;99.90
22532;DHT22;11432;46.924;7.114;2023-12-20T10:45:19;7.70;99.90
22532;DHT22;11432;46.924;7.114;2023-12-20T10:47:46;8.30;99.90
22532;DHT22;11432;46.924;7.114;2023-12-20T10:50:12;8.20;99.90
22532;DHT22;11432;46.924;7.114;2023-12-20T10:52:38;8.90;99.90
22532;DHT22;11432;46.924;7.114;2023-12-20T10:55:04;9.60;99.90
22532;DHT22;11432;46.924;7.114;2023-12-20T10:57:30;10.50;99.90
22532;DHT22;11432;46.924;7.114;2023-12-20T11:00:01;11.50;1.00
22532;DHT22;11432;46.924;7.114;2023-12-20T11:02:39;11.80;1.00
22532;DHT22;11432;46.924;7.114;2023-12-20T11:05:16;12.20;1.00
22532;DHT22;11432;46.924;7.114;2023-12-20T11:07:56;12.50;1.00
22532;DHT22;11432;46.924;7.114;2023-12-20T11:10:29;13.00;1.00
22532;DHT22;11432;46.924;7.114;2023-12-20T11:13:09;13.10;1.00
22532;DHT22;11432;46.924;7.114;2023-12-20T11:15:36;13.40;1.00
22532;DHT22;11432;46.924;7.114;2023-12-20T11:18:04;12.40;1.00
22532;DHT22;11432;46.924;7.114;2023-12-20T11:20:41;10.60;1.00
22532;DHT22;11432;46.924;7.114;2023-12-20T11:23:08;9.40;99.90
22532;DHT22;11432;46.924;7.114;2023-12-20T11:25:52;8.70;99.90
22532;DHT22;11432;46.924;7.114;2023-12-20T11:28:23;8.80;99.90
22532;DHT22;11432;46.924;7.114;2023-12-20T11:30:51;8.60;99.90
22532;DHT22;11432;46.924;7.114;2023-12-20T11:33:22;10.10;99.90
22532;DHT22;11432;46.924;7.114;2023-12-20T11:35:48;9.70;99.90
22532;DHT22;11432;46.924;7.114;2023-12-20T11:38:14;9.30;99.90
22532;DHT22;11432;46.924;7.114;2023-12-20T11:40:41;8.90;99.90
22532;DHT22;11432;46.924;7.114;2023-12-20T11:43:07;8.80;99.90
22532;DHT22;11432;46.924;7.114;2023-12-20T11:45:33;9.20;99.90
22532;DHT22;11432;46.924;7.114;2023-12-20T11:48:04;10.90;99.90
22532;DHT22;11432;46.924;7.114;2023-12-20T11:50:30;11.80;99.90
22532;DHT22;11432;46.924;7.114;2023-12-20T11:52:56;10.70;99.90
22532;DHT22;11432;46.924;7.114;2023-12-20T11:55:22;10.50;99.90
22532;DHT22;11432;46.924;7.114;2023-12-20T11:57:50;10.70;99.90
22532;DHT22;11432;46.924;7.114;2023-12-20T12:00:16;10.50;99.90
22532;DHT22;11432;46.924;7.114;2023-12-20T12:02:42;9.70;99.90
22532;DHT22;11432;46.924;7.114;2023-12-20T12:05:07;9.40;99.90
22532;DHT22;11432;46.924;7.114;2023-12-20T12:07:36;9.20;99.90
22532;DHT22;11432;46.924;7.114;2023-12-20T12:10:02;10.00;99.90
22532;DHT22;11432;46.924;7.114;2023-12-20T12:12:29;9.70;99.90
22532;DHT22;11432;46.924;7.114;2023-12-20T12:14:55;9.80;99.90
22532;DHT22;11432;46.924;7.114;2023-12-20T12:17:23;9.90;96.60
22532;DHT22;11432;46.924;7.114;2023-12-20T12:19:48;9.20;99.90
22532;DHT22;11432;46.924;7.114;2023-12-20T12:22:15;8.80;99.90
22532;DHT22;11432;46.924;7.114;2023-12-20T12:24:47;8.70;3.30
22532;DHT22;11432;46.924;7.114;2023-12-20T12:27:14;9.40;1.00
22532;DHT22;11432;46.924;7.114;2023-12-20T12:29:40;8.40;74.80
22532;DHT22;11432;46.924;7.114;2023-12-20T12:32:09;8.30;93.90
22532;DHT22;11432;46.924;7.114;2023-12-20T12:34:35;8.20;98.30
22532;DHT22;11432;46.924;7.114;2023-12-20T12:37:02;8.10;99.90
22532;DHT22;11432;46.924;7.114;2023-12-20T12:39:27;7.90;99.90
22532;DHT22;11432;46.924;7.114;2023-12-20T12:41:55;7.80;99.90
22532;DHT22;11432;46.924;7.114;2023-12-20T12:44:21;7.80;99.90
22532;DHT22;11432;46.924;7.114;2023-12-20T12:46:49;7.90;99.90
22532;DHT22;11432;46.924;7.114;2023-12-20T12:49:20;8.10;1.00
22532;DHT22;11432;46.924;7.114;2023-12-20T12:51:47;8.30;7.20
22532;DHT22;11432;46.924;7.114;2023-12-20T12:54:12;8.20;1.00
22532;DHT22;11432;46.924;7.114;2023-12-20T12:56:39;8.10;99.90
22532;DHT22;11432;46.924;7.114;2023-12-20T12:59:05;8.00;99.90
22532;DHT22;11432;46.924;7.114;2023-12-20T13:01:31;8.00;99.90
22532;DHT22;11432;46.924;7.114;2023-12-20T13:03:57;7.80;99.90
22532;DHT22;11432;46.924;7.114;2023-12-20T13:06:23;7.80;99.90
22532;DHT22;11432;46.924;7.114;2023-12-20T13:08:49;7.70;99.90
22532;DHT22;11432;46.924;7.114;2023-12-20T13:11:14;7.60;99.90
22532;DHT22;11432;46.924;7.114;2023-12-20T13:13:40;7.50;99.90
22532;DHT22;11432;46.924;7.114;2023-12-20T13:16:06;7.50;99.90
22532;DHT22;11432;46.924;7.114;2023-12-20T13:18:31;7.50;99.90
22532;DHT22;11432;46.924;7.114;2023-12-20T13:20:57;7.50;99.90
22532;DHT22;11432;46.924;7.114;2023-12-20T13:23:23;7.60;99.90
22532;DHT22;11432;46.924;7.114;2023-12-20T13:25:48;7.60;99.90
22532;DHT22;11432;46.924;7.114;2023-12-20T13:28:14;7.70;99.90
22532;DHT22;11432;46.924;7.114;2023-12-20T13:30:40;7.60;99.90
22532;DHT22;11432;46.924;7.114;2023-12-20T13:33:06;8.40;99.90
22532;DHT22;11432;46.924;7.114;2023-12-20T13:35:32;8.30;99.90
22532;DHT22;11432;46.924;7.114;2023-12-20T13:37:58;8.10;57.10
22532;DHT22;11432;46.924;7.114;2023-12-20T13:40:24;7.70;1.00
22532;DHT22;11432;46.924;7.114;2023-12-20T13:42:50;7.70;1.00
22532;DHT22;11432;46.924;7.114;2023-12-20T13:45:16;7.60;1.00
22532;DHT22;11432;46.924;7.114;2023-12-20T13:47:41;7.60;1.00
22532;DHT22;11432;46.924;7.114;2023-12-20T13:50:07;7.40;1.00
22532;DHT22;11432;46.924;7.114;2023-12-20T13:52:33;7.20;1.00
22532;DHT22;11432;46.924;7.114;2023-12-20T13:54:58;7.10;6.70
22532;DHT22;11432;46.924;7.114;2023-12-20T13:57:24;7.00;1.00
22532;DHT22;11432;46.924;7.114;2023-12-20T13:59:49;7.00;1.00
22532;DHT22;11432;46.924;7.114;2023-12-20T14:02:15;7.10;99.00
22532;DHT22;11432;46.924;7.114;2023-12-20T14:04:42;7.10;39.70
22532;DHT22;11432;46.924;7.114;2023-12-20T14:07:07;7.10;15.90
22532;DHT22;11432;46.924;7.114;2023-12-20T14:09:34;7.10;1.00
22532;DHT22;11432;46.924;7.114;2023-12-20T14:11:59;7.10;1.00
22532;DHT22;11432;46.924;7.114;2023-12-20T14:14:25;7.00;1.00
22532;DHT22;11432;46.924;7.114;2023-12-20T14:16:50;7.00;1.00
22532;DHT22;11432;46.924;7.114;2023-12-20T14:19:16;6.90;1.00
22532;DHT22;11432;46.924;7.114;2023-12-20T14:21:42;6.80;6.10
22532;DHT22;11432;46.924;7.114;2023-12-20T14:26:33;6.70;1.00
22532;DHT22;11432;46.924;7.114;2023-12-20T14:31:25;6.50;1.00
22532;DHT22;11432;46.924;7.114;2023-12-20T14:33:51;6.50;1.00
22532;DHT22;11432;46.924;7.114;2023-12-20T14:36:18;6.50;1.00
22532;DHT22;11432;46.924;7.114;2023-12-20T14:38:45;6.40;1.00
22532;DHT22;11432;46.924;7.114;2023-12-20T14:41:12;6.40;1.00
22532;DHT22;11432;46.924;7.114;2023-12-20T14:43:38;6.50;1.00
22532;DHT22;11432;46.924;7.114;2023-12-20T14:46:03;6.40;1.00
22532;DHT22;11432;46.924;7.114;2023-12-20T14:48:31;6.50;1.00
22532;DHT22;11432;46.924;7.114;2023-12-20T14:50:57;6.50;1.00
22532;DHT22;11432;46.924;7.114;2023-12-20T14:53:24;6.50;1.00
22532;DHT22;11432;46.924;7.114;2023-12-20T14:55:50;6.40;1.00
22532;DHT22;11432;46.924;7.114;2023-12-20T14:58:16;6.30;1.00
22532;DHT22;11432;46.924;7.114;2023-12-20T15:00:42;6.30;1.00
22532;DHT22;11432;46.924;7.114;2023-12-20T15:03:09;6.20;1.00
22532;DHT22;11432;46.924;7.114;2023-12-20T15:05:35;6.20;60.60
22532;DHT22;11432;46.924;7.114;2023-12-20T15:08:01;6.10;1.00
22532;DHT22;11432;46.924;7.114;2023-12-20T15:10:26;6.10;1.00
22532;DHT22;11432;46.924;7.114;2023-12-20T15:12:52;6.10;1.00
22532;DHT22;11432;46.924;7.114;2023-12-20T15:15:18;6.10;1.00
22532;DHT22;11432;46.924;7.114;2023-12-20T15:17:44;6.00;1.00
22532;DHT22;11432;46.924;7.114;2023-12-20T15:20:10;6.00;1.00
22532;DHT22;11432;46.924;7.114;2023-12-20T15:22:36;5.90;1.00
22532;DHT22;11432;46.924;7.114;2023-12-20T15:25:03;5.80;1.00
22532;DHT22;11432;46.924;7.114;2023-12-20T15:27:31;5.80;1.00
22532;DHT22;11432;46.924;7.114;2023-12-20T15:29:59;5.80;1.00
22532;DHT22;11432;46.924;7.114;2023-12-20T15:32:24;5.80;1.00
22532;DHT22;11432;46.924;7.114;2023-12-20T15:34:50;5.70;1.00
22532;DHT22;11432;46.924;7.114;2023-12-20T15:37:17;5.70;1.00
22532;DHT22;11432;46.924;7.114;2023-12-20T15:39:43;5.60;1.00
22532;DHT22;11432;46.924;7.114;2023-12-20T15:42:08;5.50;1.00
22532;DHT22;11432;46.924;7.114;2023-12-20T15:44:34;5.40;1.00
22532;DHT22;11432;46.924;7.114;2023-12-20T15:46:59;5.40;1.00
22532;DHT22;11432;46.924;7.114;2023-12-20T15:49:25;5.30;1.00